Time;durP1;ratioP1;P1;durP2;ratioP2;P2;SDS_P1;SDS_P2;PMS_P1;PMS_P2;Temp;Humidity;BMP_temperature;BMP_pressure;BME280_temperature;BME280_humidity;BME280_pressure;Samples;Min_cycle;Max_cycle;Signal;HPM_P1;HPM_P2
2021/11/19 00:00:48;;;;;;;;;37.00;31.50;;;;;;;;5001480;28;45359;-72
2021/11/19 00:03:14;;;;;;;;;36.75;31.50;;;;;;;;5011207;28;46629;-72
2021/11/19 00:05:41;;;;;;;;;34.00;29.50;;;;;;;;5004016;28;45332;-71
2021/11/19 00:08:06;;;;;;;;;33.00;25.25;;;;;;;;5000951;28;45260;-71
2021/11/19 00:10:32;;;;;;;;;48.25;31.25;;;;;;;;5006585;28;45531;-72
2021/11/19 00:12:57;;;;;;;;;40.75;33.00;;;;;;;;5008066;28;46270;-72
2021/11/19 00:15:22;;;;;;;;;43.33;29.33;;;;;;;;5002287;28;45328;-72
2021/11/19 00:17:47;;;;;;;;;42.00;32.00;;;;;;;;5000117;28;45598;-72
2021/11/19 00:20:15;;;;;;;;;37.67;31.33;;;;;;;;5008376;28;45465;-72
2021/11/19 00:22:40;;;;;;;;;35.25;32.25;;;;;;;;5005905;28;46202;-71
2021/11/19 00:25:06;;;;;;;;;53.67;32.00;;;;;;;;5005318;28;45469;-71
2021/11/19 00:27:32;;;;;;;;;37.50;29.00;;;;;;;;5010930;28;45465;-72
2021/11/19 00:29:58;;;;;;;;;47.50;34.25;;;;;;;;5005846;28;45522;-71
2021/11/19 00:32:23;;;;;;;;;37.50;29.50;;;;;;;;5003679;28;46338;-72
2021/11/19 00:34:49;;;;;;;;;43.33;32.33;;;;;;;;5004892;28;45977;-72
2021/11/19 00:37:14;;;;;;;;;39.00;30.25;;;;;;;;5006337;28;45467;-71
2021/11/19 00:39:39;;;;;;;;;36.67;26.00;;;;;;;;5003815;28;45572;-72
2021/11/19 00:42:05;;;;;;;;;51.00;33.25;;;;;;;;5011713;28;46559;-72
2021/11/19 00:44:31;;;;;;;;;40.00;30.00;;;;;;;;5014626;28;45765;-72
2021/11/19 00:46:56;;;;;;;;;33.00;27.25;;;;;;;;5009100;28;45896;-72
2021/11/19 00:49:26;;;;;;;;;30.75;26.50;;;;;;;;5009709;28;45416;-72
2021/11/19 00:51:54;;;;;;;;;37.00;29.25;;;;;;;;5010401;28;46883;-72
2021/11/19 00:54:19;;;;;;;;;40.25;25.25;;;;;;;;5008104;28;46060;-72
2021/11/19 00:56:46;;;;;;;;;37.00;29.00;;;;;;;;5004490;28;45391;-71
2021/11/19 00:59:12;;;;;;;;;36.50;27.25;;;;;;;;5014041;28;45376;-71
2021/11/19 01:01:42;;;;;;;;;34.50;26.50;;;;;;;;5012883;28;45565;-72
2021/11/19 01:04:08;;;;;;;;;40.50;31.25;;;;;;;;5010952;28;45484;-71
2021/11/19 01:06:33;;;;;;;;;32.25;22.50;;;;;;;;5014421;28;45469;-71
2021/11/19 01:08:59;;;;;;;;;34.75;25.50;;;;;;;;5005070;28;45543;-71
2021/11/19 01:11:25;;;;;;;;;43.00;32.75;;;;;;;;5005660;28;45539;-71
2021/11/19 01:13:52;;;;;;;;;34.25;28.00;;;;;;;;5010121;28;46011;-71
2021/11/19 01:16:25;;;;;;;;;45.50;31.50;;;;;;;;5006907;28;45435;-71
2021/11/19 01:18:56;;;;;;;;;35.75;26.50;;;;;;;;5011297;28;45507;-71
2021/11/19 01:21:26;;;;;;;;;29.50;25.00;;;;;;;;5009966;28;46436;-71
2021/11/19 01:23:52;;;;;;;;;32.00;26.25;;;;;;;;5017388;28;45458;-71
2021/11/19 01:26:21;;;;;;;;;38.67;30.33;;;;;;;;5017336;28;45369;-71
2021/11/19 01:28:51;;;;;;;;;44.25;28.75;;;;;;;;5009428;28;45687;-71
2021/11/19 01:31:20;;;;;;;;;39.00;27.00;;;;;;;;5005721;28;45507;-71
2021/11/19 01:33:47;;;;;;;;;32.50;24.75;;;;;;;;5012118;28;45950;-71
2021/11/19 01:36:12;;;;;;;;;37.50;30.25;;;;;;;;5019725;28;45417;-71
2021/11/19 01:38:40;;;;;;;;;29.67;27.00;;;;;;;;5018662;28;45542;-71
2021/11/19 01:41:07;;;;;;;;;38.25;27.50;;;;;;;;5007881;28;45455;-71
2021/11/19 01:43:34;;;;;;;;;47.75;29.00;;;;;;;;5005443;28;45961;-72
2021/11/19 01:46:02;;;;;;;;;39.50;27.50;;;;;;;;5008687;28;45369;-72
2021/11/19 01:48:30;;;;;;;;;50.25;33.75;;;;;;;;5008039;28;45387;-72
2021/11/19 01:50:59;;;;;;;;;34.25;26.75;;;;;;;;5011965;28;46629;-72
2021/11/19 01:53:35;;;;;;;;;38.50;31.25;;;;;;;;5014131;28;45937;-72
2021/11/19 01:56:06;;;;;;;;;35.75;28.75;;;;;;;;5011066;28;45706;-72
2021/11/19 01:58:34;;;;;;;;;30.00;23.50;;;;;;;;5010905;28;45571;-71
2021/11/19 02:01:02;;;;;;;;;43.00;33.00;;;;;;;;5003867;28;45495;-71
2021/11/19 02:03:28;;;;;;;;;34.75;25.75;;;;;;;;5002139;28;45942;-72
2021/11/19 02:05:56;;;;;;;;;34.25;23.25;;;;;;;;5009558;28;45484;-72
2021/11/19 02:08:22;;;;;;;;;27.00;23.00;;;;;;;;5013322;28;45569;-71
2021/11/19 02:10:47;;;;;;;;;28.75;21.00;;;;;;;;5009047;28;45869;-71
2021/11/19 02:13:23;;;;;;;;;32.67;25.33;;;;;;;;5006031;28;45453;-72
2021/11/19 02:15:57;;;;;;;;;32.00;26.75;;;;;;;;5004757;28;45478;-72
2021/11/19 02:18:25;;;;;;;;;27.25;20.75;;;;;;;;5008150;28;45559;-71
2021/11/19 02:20:54;;;;;;;;;29.75;19.00;;;;;;;;5011959;28;45533;-72
2021/11/19 02:23:22;;;;;;;;;28.75;22.00;;;;;;;;5008174;28;45972;-72
2021/11/19 02:25:50;;;;;;;;;27.75;21.75;;;;;;;;5005972;28;45519;-71
2021/11/19 02:28:18;;;;;;;;;35.25;25.25;;;;;;;;5010694;28;45622;-71
2021/11/19 02:30:47;;;;;;;;;32.25;24.25;;;;;;;;5007688;28;46503;-71
2021/11/19 02:33:13;;;;;;;;;31.25;21.75;;;;;;;;5011184;28;45970;-71
2021/11/19 02:35:47;;;;;;;;;39.25;22.50;;;;;;;;5001794;28;45470;-72
2021/11/19 02:38:13;;;;;;;;;34.50;25.50;;;;;;;;5014995;28;45351;-72
2021/11/19 02:40:40;;;;;;;;;31.75;21.50;;;;;;;;5010285;28;46396;-72
2021/11/19 02:43:10;;;;;;;;;28.75;22.75;;;;;;;;5006348;28;45589;-72
2021/11/19 02:45:44;;;;;;;;;31.25;24.00;;;;;;;;5011460;28;45394;-72
2021/11/19 02:48:16;;;;;;;;;29.50;22.00;;;;;;;;5012258;28;45796;-71
2021/11/19 02:50:41;;;;;;;;;34.75;26.75;;;;;;;;5008880;28;46499;-71
2021/11/19 02:53:07;;;;;;;;;32.50;26.00;;;;;;;;4999215;28;46311;-72
2021/11/19 02:55:35;;;;;;;;;29.50;24.50;;;;;;;;5003168;28;45382;-71
2021/11/19 02:58:00;;;;;;;;;40.50;29.75;;;;;;;;5001119;28;45377;-71
2021/11/19 03:00:28;;;;;;;;;29.75;22.75;;;;;;;;4999711;28;45522;-72
2021/11/19 03:02:53;;;;;;;;;33.75;29.25;;;;;;;;5000504;28;45493;-72
2021/11/19 03:05:20;;;;;;;;;47.75;28.50;;;;;;;;5002997;28;45459;-71
2021/11/19 03:07:45;;;;;;;;;41.50;32.00;;;;;;;;5003424;28;45549;-72
2021/11/19 03:10:21;;;;;;;;;40.50;29.50;;;;;;;;5003868;28;46100;-72
2021/11/19 03:12:46;;;;;;;;;37.50;25.75;;;;;;;;5009832;28;45944;-72
2021/11/19 03:15:14;;;;;;;;;39.25;35.50;;;;;;;;5002833;28;45518;-71
2021/11/19 03:17:40;;;;;;;;;38.50;30.00;;;;;;;;5013111;28;45408;-72
2021/11/19 03:20:07;;;;;;;;;42.00;30.75;;;;;;;;5008994;28;46254;-72
2021/11/19 03:22:32;;;;;;;;;34.25;29.75;;;;;;;;5005878;28;45474;-71
2021/11/19 03:24:58;;;;;;;;;39.00;29.50;;;;;;;;5004300;28;45360;-72
2021/11/19 03:27:24;;;;;;;;;38.00;25.75;;;;;;;;5000281;28;45623;-71
2021/11/19 03:29:50;;;;;;;;;29.00;26.00;;;;;;;;5002715;28;46507;-72
2021/11/19 03:32:18;;;;;;;;;29.25;27.25;;;;;;;;5002803;28;45661;-71
2021/11/19 03:34:44;;;;;;;;;44.00;30.00;;;;;;;;5000823;28;45677;-72
2021/11/19 03:37:09;;;;;;;;;37.00;24.25;;;;;;;;5011788;28;45610;-71
2021/11/19 03:39:34;;;;;;;;;31.67;24.00;;;;;;;;5012254;28;46466;-72
2021/11/19 03:42:00;;;;;;;;;46.33;30.67;;;;;;;;5003515;28;45421;-71
2021/11/19 03:44:37;;;;;;;;;39.75;25.00;;;;;;;;5008751;28;45758;-71
2021/11/19 03:47:05;;;;;;;;;35.75;26.75;;;;;;;;5000217;28;45521;-72
2021/11/19 03:49:32;;;;;;;;;29.00;23.75;;;;;;;;5001776;28;46460;-71
2021/11/19 03:52:03;;;;;;;;;34.50;26.25;;;;;;;;5005136;28;45586;-71
2021/11/19 03:54:29;;;;;;;;;35.50;25.25;;;;;;;;5010776;28;45313;-71
2021/11/19 03:56:55;;;;;;;;;29.00;22.50;;;;;;;;5008544;28;45452;-71
2021/11/19 03:59:21;;;;;;;;;34.75;22.25;;;;;;;;5010296;28;46426;-72
2021/11/19 04:01:47;;;;;;;;;31.75;24.25;;;;;;;;5007764;28;45546;-72
2021/11/19 04:04:14;;;;;;;;;36.00;25.75;;;;;;;;5007179;28;45498;-72
2021/11/19 04:06:40;;;;;;;;;24.50;18.75;;;;;;;;5007477;28;46199;-72
2021/11/19 04:09:05;;;;;;;;;27.50;20.25;;;;;;;;5003562;28;45490;-72
2021/11/19 04:11:31;;;;;;;;;22.67;18.67;;;;;;;;4999690;28;45475;-72
2021/11/19 04:13:57;;;;;;;;;21.00;17.50;;;;;;;;5008620;28;45684;-71
2021/11/19 04:16:34;;;;;;;;;28.75;22.50;;;;;;;;5010038;28;45828;-72
2021/11/19 04:19:00;;;;;;;;;29.00;23.00;;;;;;;;5005320;28;46421;-72
2021/11/19 04:21:26;;;;;;;;;27.00;20.75;;;;;;;;5005297;28;46298;-72
2021/11/19 04:23:53;;;;;;;;;28.50;22.75;;;;;;;;5007610;28;45398;-72
2021/11/19 04:26:19;;;;;;;;;29.75;21.50;;;;;;;;5006950;28;45721;-72
2021/11/19 04:28:46;;;;;;;;;25.25;19.75;;;;;;;;5001737;28;45617;-72
2021/11/19 04:31:11;;;;;;;;;39.75;30.00;;;;;;;;5006756;28;45707;-72
2021/11/19 04:33:38;;;;;;;;;30.75;25.50;;;;;;;;5008281;28;45498;-71
2021/11/19 04:36:04;;;;;;;;;26.75;19.50;;;;;;;;5009097;28;45781;-71
2021/11/19 04:38:29;;;;;;;;;22.25;20.00;;;;;;;;5002724;28;47042;-72
2021/11/19 04:40:55;;;;;;;;;31.25;22.25;;;;;;;;5003505;28;45289;-72
2021/11/19 04:43:21;;;;;;;;;28.50;22.25;;;;;;;;5002468;28;45687;-72
2021/11/19 04:45:47;;;;;;;;;25.00;19.25;;;;;;;;5004449;28;45418;-72
2021/11/19 04:48:12;;;;;;;;;22.75;19.25;;;;;;;;4998930;28;45389;-72
2021/11/19 04:50:39;;;;;;;;;18.75;18.00;;;;;;;;5007102;28;45304;-72
2021/11/19 04:53:05;;;;;;;;;23.25;18.25;;;;;;;;5006718;28;45297;-71
2021/11/19 04:55:31;;;;;;;;;18.50;15.75;;;;;;;;5005346;28;45549;-72
2021/11/19 04:57:56;;;;;;;;;20.75;17.00;;;;;;;;5007489;28;46683;-72
2021/11/19 05:00:29;;;;;;;;;18.25;18.00;;;;;;;;5008946;28;45491;-72
2021/11/19 05:02:54;;;;;;;;;21.50;17.00;;;;;;;;5007167;28;45493;-72
2021/11/19 05:05:20;;;;;;;;;29.33;19.00;;;;;;;;5002715;28;45578;-72
2021/11/19 05:07:45;;;;;;;;;28.50;19.50;;;;;;;;5001569;28;45677;-72
2021/11/19 05:10:11;;;;;;;;;22.50;20.25;;;;;;;;5005182;28;45370;-72
2021/11/19 05:12:39;;;;;;;;;23.25;19.50;;;;;;;;4998395;28;45400;-71
2021/11/19 05:15:05;;;;;;;;;28.25;18.25;;;;;;;;5008020;28;45252;-72
2021/11/19 05:17:32;;;;;;;;;20.25;17.75;;;;;;;;5004461;28;45506;-72
2021/11/19 05:19:57;;;;;;;;;21.25;16.75;;;;;;;;5002698;28;45572;-71
2021/11/19 05:22:22;;;;;;;;;17.67;17.33;;;;;;;;4997963;28;45482;-71
2021/11/19 05:24:49;;;;;;;;;22.00;15.33;;;;;;;;4997720;28;45352;-72
2021/11/19 05:27:14;;;;;;;;;16.50;12.25;;;;;;;;5011006;28;47014;-72
2021/11/19 05:29:39;;;;;;;;;19.25;16.25;;;;;;;;5001641;28;45336;-72
2021/11/19 05:32:05;;;;;;;;;24.00;17.33;;;;;;;;5009956;28;45364;-72
2021/11/19 05:34:30;;;;;;;;;19.25;17.75;;;;;;;;5002710;28;45521;-72
2021/11/19 05:36:56;;;;;;;;;22.33;19.00;;;;;;;;5005504;28;45525;-72
2021/11/19 05:39:21;;;;;;;;;22.00;12.00;;;;;;;;5007684;28;47717;-71
2021/11/19 05:41:48;;;;;;;;;27.75;22.25;;;;;;;;5008210;28;45577;-72
2021/11/19 05:44:13;;;;;;;;;23.00;19.75;;;;;;;;5003349;28;45409;-72
2021/11/19 05:46:41;;;;;;;;;27.75;17.75;;;;;;;;5009336;28;47018;-72
2021/11/19 05:49:11;;;;;;;;;26.75;20.75;;;;;;;;5002314;28;45886;-72
2021/11/19 05:51:37;;;;;;;;;20.00;15.50;;;;;;;;5000709;28;45597;-72
2021/11/19 05:54:04;;;;;;;;;23.75;15.00;;;;;;;;5013069;28;45215;-73
2021/11/19 05:56:29;;;;;;;;;20.75;18.25;;;;;;;;5009759;28;46616;-72
2021/11/19 05:58:54;;;;;;;;;26.67;20.00;;;;;;;;5016196;28;45376;-72
2021/11/19 06:01:20;;;;;;;;;22.33;18.33;;;;;;;;5005721;28;45486;-71
2021/11/19 06:03:46;;;;;;;;;22.75;17.25;;;;;;;;5001778;28;45671;-72
2021/11/19 06:06:13;;;;;;;;;20.50;18.25;;;;;;;;5001488;28;47402;-73
2021/11/19 06:08:39;;;;;;;;;23.75;18.50;;;;;;;;5000339;28;45411;-71
2021/11/19 06:11:07;;;;;;;;;28.75;17.50;;;;;;;;5012222;28;45739;-72
2021/11/19 06:13:35;;;;;;;;;20.00;19.75;;;;;;;;5004854;28;45459;-71
2021/11/19 06:16:02;;;;;;;;;27.25;18.25;;;;;;;;5006190;28;46178;-72
2021/11/19 06:18:30;;;;;;;;;26.25;22.50;;;;;;;;5008105;28;45913;-72
2021/11/19 06:20:58;;;;;;;;;24.25;18.25;;;;;;;;5003849;28;45574;-72
2021/11/19 06:23:25;;;;;;;;;17.00;13.50;;;;;;;;5009441;28;45498;-71
2021/11/19 06:25:51;;;;;;;;;22.00;16.00;;;;;;;;5009377;28;46135;-72
2021/11/19 06:28:22;;;;;;;;;21.75;16.00;;;;;;;;5003830;28;45594;-72
2021/11/19 06:30:47;;;;;;;;;21.00;16.00;;;;;;;;4999756;28;45302;-71
2021/11/19 06:33:12;;;;;;;;;23.00;15.67;;;;;;;;5006134;28;45514;-71
2021/11/19 06:35:38;;;;;;;;;25.00;22.00;;;;;;;;5007151;28;45582;-72
2021/11/19 06:38:03;;;;;;;;;20.50;16.50;;;;;;;;5004065;28;45509;-72
2021/11/19 06:40:30;;;;;;;;;20.25;16.75;;;;;;;;5003668;28;45542;-72
2021/11/19 06:42:57;;;;;;;;;22.75;18.25;;;;;;;;5002664;28;45442;-71
2021/11/19 06:45:23;;;;;;;;;23.50;21.75;;;;;;;;5011215;28;46094;-72
2021/11/19 06:47:48;;;;;;;;;23.50;17.75;;;;;;;;5008498;28;45480;-72
2021/11/19 06:50:15;;;;;;;;;24.67;18.00;;;;;;;;5006038;28;45439;-72
2021/11/19 06:52:41;;;;;;;;;19.50;16.50;;;;;;;;5010754;28;45469;-72
2021/11/19 06:55:07;;;;;;;;;19.00;15.50;;;;;;;;5007070;28;45639;-73
2021/11/19 06:57:33;;;;;;;;;27.00;20.25;;;;;;;;5007840;28;45501;-75
2021/11/19 06:59:58;;;;;;;;;17.33;14.00;;;;;;;;5013848;28;45432;-73
2021/11/19 07:02:23;;;;;;;;;20.75;16.00;;;;;;;;5013640;28;45542;-74
2021/11/19 07:04:48;;;;;;;;;18.33;17.67;;;;;;;;5007585;28;45372;-72
2021/11/19 07:07:14;;;;;;;;;24.33;18.00;;;;;;;;5002832;28;45437;-72
2021/11/19 07:09:41;;;;;;;;;25.75;17.25;;;;;;;;5011029;28;45475;-72
2021/11/19 07:12:08;;;;;;;;;22.50;19.50;;;;;;;;5000671;28;45414;-72
2021/11/19 07:14:33;;;;;;;;;25.25;17.75;;;;;;;;5009181;28;46221;-72
2021/11/19 07:16:58;;;;;;;;;25.00;16.00;;;;;;;;5003264;28;45364;-72
2021/11/19 07:19:23;;;;;;;;;29.67;23.00;;;;;;;;5005756;28;45465;-72
2021/11/19 07:21:53;;;;;;;;;23.00;19.00;;;;;;;;5007273;28;45348;-74
2021/11/19 07:24:18;;;;;;;;;23.25;18.50;;;;;;;;4999915;28;45360;-72
2021/11/19 07:26:44;;;;;;;;;21.00;18.25;;;;;;;;4995630;28;45546;-72
2021/11/19 07:29:09;;;;;;;;;28.67;21.00;;;;;;;;5011630;28;45443;-72
2021/11/19 07:31:35;;;;;;;;;21.00;21.00;;;;;;;;5013397;28;45514;-72
2021/11/19 07:34:01;;;;;;;;;22.00;15.75;;;;;;;;5011287;28;45510;-72
2021/11/19 07:36:26;;;;;;;;;18.67;16.67;;;;;;;;5004165;28;45427;-73
2021/11/19 07:38:53;;;;;;;;;20.00;17.25;;;;;;;;5007755;28;45443;-72
2021/11/19 07:41:20;;;;;;;;;21.75;16.75;;;;;;;;5008832;28;45378;-72
2021/11/19 07:43:45;;;;;;;;;24.75;17.50;;;;;;;;5008770;28;46695;-72
2021/11/19 07:46:12;;;;;;;;;29.25;18.75;;;;;;;;5006970;28;45360;-72
2021/11/19 07:48:39;;;;;;;;;20.00;18.75;;;;;;;;5014888;28;45420;-71
2021/11/19 07:51:06;;;;;;;;;23.75;17.25;;;;;;;;5007533;28;45553;-73
2021/11/19 07:53:31;;;;;;;;;24.75;19.00;;;;;;;;5007195;28;47192;-73
2021/11/19 07:55:57;;;;;;;;;25.33;18.00;;;;;;;;5001026;28;45477;-73
2021/11/19 07:58:23;;;;;;;;;28.25;20.25;;;;;;;;5014152;28;45576;-73
2021/11/19 08:00:48;;;;;;;;;21.75;17.00;;;;;;;;5010648;28;45513;-72
2021/11/19 08:03:14;;;;;;;;;22.00;19.50;;;;;;;;5014354;28;46482;-73
2021/11/19 08:05:40;;;;;;;;;23.50;18.75;;;;;;;;5012120;28;45426;-73
2021/11/19 08:08:05;;;;;;;;;21.75;20.00;;;;;;;;5015297;28;45262;-72
2021/11/19 08:10:31;;;;;;;;;29.67;22.67;;;;;;;;5014470;28;45513;-73
2021/11/19 08:12:56;;;;;;;;;21.00;19.33;;;;;;;;5014489;28;45311;-73
2021/11/19 08:15:22;;;;;;;;;26.75;20.75;;;;;;;;5014116;28;45588;-72
2021/11/19 08:17:49;;;;;;;;;23.50;18.75;;;;;;;;5014208;28;45612;-73
2021/11/19 08:20:23;;;;;;;;;21.25;18.25;;;;;;;;5010451;28;45502;-73
2021/11/19 08:22:48;;;;;;;;;28.00;21.25;;;;;;;;5011903;28;45519;-73
2021/11/19 08:25:14;;;;;;;;;18.25;16.50;;;;;;;;5008436;28;45452;-74
2021/11/19 08:27:42;;;;;;;;;33.25;23.50;;;;;;;;4998353;28;45387;-73
2021/11/19 08:30:10;;;;;;;;;43.50;26.00;;;;;;;;5002949;28;45494;-73
2021/11/19 08:32:35;;;;;;;;;30.75;23.25;;;;;;;;4998030;28;47262;-73
2021/11/19 08:35:01;;;;;;;;;30.33;22.00;;;;;;;;5005500;28;46008;-73
2021/11/19 08:37:27;;;;;;;;;23.25;22.25;;;;;;;;5012705;28;45590;-75
2021/11/19 08:39:53;;;;;;;;;24.75;21.25;;;;;;;;5013842;28;45279;-73
2021/11/19 08:42:19;;;;;;;;;23.25;20.00;;;;;;;;5013640;28;46629;-73
2021/11/19 08:44:45;;;;;;;;;24.00;20.50;;;;;;;;5013518;28;46014;-73
2021/11/19 08:47:10;;;;;;;;;28.75;24.50;;;;;;;;5014767;28;45450;-74
2021/11/19 08:49:36;;;;;;;;;31.50;25.75;;;;;;;;5012789;28;45356;-73
2021/11/19 08:52:03;;;;;;;;;25.50;23.50;;;;;;;;5013369;28;46319;-73
2021/11/19 08:54:29;;;;;;;;;27.00;21.50;;;;;;;;5013660;28;45852;-74
2021/11/19 08:56:57;;;;;;;;;25.75;22.50;;;;;;;;5013585;28;45565;-74
2021/11/19 08:59:23;;;;;;;;;29.00;24.75;;;;;;;;5013820;28;45434;-74
2021/11/19 09:01:50;;;;;;;;;25.25;20.25;;;;;;;;5012434;28;46809;-73
2021/11/19 09:04:16;;;;;;;;;29.50;24.25;;;;;;;;5016163;28;46063;-73
2021/11/19 09:06:42;;;;;;;;;26.50;22.75;;;;;;;;5012482;28;45374;-73
2021/11/19 09:09:07;;;;;;;;;21.75;21.50;;;;;;;;5001817;28;45356;-73
2021/11/19 09:11:33;;;;;;;;;32.00;23.50;;;;;;;;5006437;28;45514;-73
2021/11/19 09:13:58;;;;;;;;;28.25;24.25;;;;;;;;5014600;28;45500;-72
2021/11/19 09:16:25;;;;;;;;;32.00;24.67;;;;;;;;5011511;28;45578;-71
2021/11/19 09:18:58;;;;;;;;;31.00;26.50;;;;;;;;5006399;28;45290;-71
2021/11/19 09:21:30;;;;;;;;;38.25;26.00;;;;;;;;5011944;28;46748;-71
2021/11/19 09:24:00;;;;;;;;;29.00;24.75;;;;;;;;4999137;28;46054;-70
2021/11/19 09:26:43;;;;;;;;;31.00;24.75;;;;;;;;5013191;28;45254;-73
2021/11/19 09:29:10;;;;;;;;;27.50;23.75;;;;;;;;5004008;28;45323;-73
2021/11/19 09:31:36;;;;;;;;;35.00;30.25;;;;;;;;5014226;28;45748;-73
2021/11/19 09:34:02;;;;;;;;;32.25;26.75;;;;;;;;5016680;28;45560;-70
2021/11/19 09:36:28;;;;;;;;;25.75;23.00;;;;;;;;5016966;28;45609;-70
2021/11/19 09:38:54;;;;;;;;;29.00;24.00;;;;;;;;5016737;28;45311;-71
2021/11/19 09:41:36;;;;;;;;;32.50;26.50;;;;;;;;5017098;28;45515;-70
2021/11/19 09:44:22;;;;;;;;;30.00;25.00;;;;;;;;5004816;28;45308;-70
2021/11/19 09:47:03;;;;;;;;;26.25;24.50;;;;;;;;5015829;28;45458;-72
2021/11/19 09:49:48;;;;;;;;;32.00;26.50;;;;;;;;5016717;28;45499;-71
2021/11/19 09:52:37;;;;;;;;;40.00;28.75;;;;;;;;5003376;28;48209;-72
2021/11/19 09:55:02;;;;;;;;;40.00;29.25;;;;;;;;5005506;28;45604;-71
2021/11/19 09:57:27;;;;;;;;;32.67;25.00;;;;;;;;5001770;28;45567;-71
2021/11/19 10:00:00;;;;;;;;;33.00;24.00;;;;;;;;5005416;28;45472;-71
2021/11/19 10:02:28;;;;;;;;;36.25;28.00;;;;;;;;5012706;28;46370;-71
2021/11/19 10:05:06;;;;;;;;;36.25;27.00;;;;;;;;5012475;28;45848;-71
2021/11/19 10:07:50;;;;;;;;;30.75;27.00;;;;;;;;5003841;28;45558;-70
2021/11/19 10:10:21;;;;;;;;;33.00;27.00;;;;;;;;4984800;28;45339;-71
2021/11/19 10:12:49;;;;;;;;;34.25;26.50;;;;;;;;4981665;28;45770;-71
2021/11/19 10:15:19;;;;;;;;;32.50;29.00;;;;;;;;4982002;28;46195;-71
2021/11/19 10:17:44;;;;;;;;;31.25;28.00;;;;;;;;4980338;28;45595;-71
2021/11/19 10:20:11;;;;;;;;;34.75;27.75;;;;;;;;4985607;28;45402;-70
2021/11/19 10:22:44;;;;;;;;;30.25;24.50;;;;;;;;4987008;28;45544;-71
2021/11/19 10:25:27;;;;;;;;;33.75;30.00;;;;;;;;4984908;28;45411;-70
2021/11/19 10:27:54;;;;;;;;;36.50;29.75;;;;;;;;5003045;28;45625;-70
2021/11/19 10:30:31;;;;;;;;;34.75;29.00;;;;;;;;4996116;28;45525;-71
2021/11/19 10:33:00;;;;;;;;;30.00;27.25;;;;;;;;4980189;28;46450;-70
2021/11/19 10:35:26;;;;;;;;;37.25;25.75;;;;;;;;4992772;28;45871;-70
2021/11/19 10:38:20;;;;;;;;;42.00;30.00;;;;;;;;4985461;28;45331;-71
2021/11/19 10:41:01;;;;;;;;;38.00;28.00;;;;;;;;4990000;28;45521;-70
2021/11/19 10:43:26;;;;;;;;;40.50;30.25;;;;;;;;4988693;28;45557;-70
2021/11/19 10:45:54;;;;;;;;;42.67;32.00;;;;;;;;4985012;28;45455;-71
2021/11/19 10:48:29;;;;;;;;;32.50;28.25;;;;;;;;4984064;28;45527;-70
2021/11/19 10:50:54;;;;;;;;;34.75;29.50;;;;;;;;4981412;28;45489;-71
2021/11/19 10:53:25;;;;;;;;;34.75;30.00;;;;;;;;4982075;28;45772;-70
2021/11/19 10:55:56;;;;;;;;;35.25;27.00;;;;;;;;5007291;28;46053;-71
2021/11/19 10:58:27;;;;;;;;;33.75;27.50;;;;;;;;4984660;28;45486;-71
2021/11/19 11:00:59;;;;;;;;;38.25;28.75;;;;;;;;4984465;28;45610;-71
2021/11/19 11:03:28;;;;;;;;;32.50;27.25;;;;;;;;4979699;28;45588;-71
2021/11/19 11:06:01;;;;;;;;;35.00;30.75;;;;;;;;4988739;28;45878;-71
2021/11/19 11:08:30;;;;;;;;;41.00;32.00;;;;;;;;4991166;28;45306;-71
2021/11/19 11:11:04;;;;;;;;;34.00;32.00;;;;;;;;5005989;28;45538;-71
2021/11/19 11:13:38;;;;;;;;;36.50;30.00;;;;;;;;5003860;28;45457;-70
2021/11/19 11:16:10;;;;;;;;;34.25;29.25;;;;;;;;5002621;28;45789;-71
2021/11/19 11:18:37;;;;;;;;;40.25;32.00;;;;;;;;5000462;28;45502;-71
2021/11/19 11:21:06;;;;;;;;;101.50;84.25;;;;;;;;4999921;28;45515;-71
2021/11/19 11:23:58;;;;;;;;;42.00;28.75;;;;;;;;5014630;28;45541;-71
2021/11/19 11:26:38;;;;;;;;;28.50;26.75;;;;;;;;4999270;28;45547;-71
2021/11/19 11:29:15;;;;;;;;;36.75;33.75;;;;;;;;5000455;28;45582;-71
2021/11/19 11:31:59;;;;;;;;;32.75;29.25;;;;;;;;5008613;28;45609;-71
2021/11/19 11:34:42;;;;;;;;;34.25;30.00;;;;;;;;5007583;28;46697;-71
2021/11/19 11:37:11;;;;;;;;;39.25;30.50;;;;;;;;5003073;28;45336;-71
2021/11/19 11:39:36;;;;;;;;;33.75;29.25;;;;;;;;5003514;28;45488;-71
2021/11/19 11:42:04;;;;;;;;;37.75;30.00;;;;;;;;4999247;28;45466;-70
2021/11/19 11:44:37;;;;;;;;;34.50;31.25;;;;;;;;4998786;28;45583;-73
2021/11/19 11:47:08;;;;;;;;;35.75;30.50;;;;;;;;5001732;28;45936;-74
2021/11/19 11:49:33;;;;;;;;;36.25;32.50;;;;;;;;5003784;28;45423;-73
2021/11/19 11:52:11;;;;;;;;;38.67;32.67;;;;;;;;5002992;28;45400;-72
2021/11/19 11:54:52;;;;;;;;;44.50;33.00;;;;;;;;5013725;28;45656;-73
2021/11/19 11:57:21;;;;;;;;;36.00;29.25;;;;;;;;4998869;28;45905;-71
2021/11/19 12:00:05;;;;;;;;;36.50;30.25;;;;;;;;5005369;28;45448;-71
2021/11/19 12:02:30;;;;;;;;;42.75;31.00;;;;;;;;5010626;28;45458;-71
2021/11/19 12:05:21;;;;;;;;;35.33;31.00;;;;;;;;5009881;28;46996;-71
2021/11/19 12:07:57;;;;;;;;;37.75;32.50;;;;;;;;4987352;28;45628;-72
2021/11/19 12:10:25;;;;;;;;;34.50;31.00;;;;;;;;4988130;28;45483;-71
2021/11/19 12:13:01;;;;;;;;;41.25;32.00;;;;;;;;4988217;28;45440;-71
2021/11/19 12:15:32;;;;;;;;;46.50;34.00;;;;;;;;4989218;28;46487;-71
2021/11/19 12:18:02;;;;;;;;;39.50;34.00;;;;;;;;4987979;28;45939;-71
2021/11/19 12:21:03;;;;;;;;;34.00;29.00;;;;;;;;4988849;28;45338;-74
2021/11/19 12:23:43;;;;;;;;;41.25;33.75;;;;;;;;4933946;28;45588;-72
2021/11/19 12:26:27;;;;;;;;;33.00;29.25;;;;;;;;4934124;28;46855;-72
2021/11/19 12:28:59;;;;;;;;;38.00;29.50;;;;;;;;4932940;28;45480;-71
2021/11/19 12:31:27;;;;;;;;;33.00;28.00;;;;;;;;4933602;28;45575;-70
2021/11/19 12:34:00;;;;;;;;;41.00;30.50;;;;;;;;4933586;28;45597;-71
2021/11/19 12:36:29;;;;;;;;;34.75;33.75;;;;;;;;4917557;28;46689;-72
2021/11/19 12:38:56;;;;;;;;;33.50;29.25;;;;;;;;4905298;28;45972;-70
2021/11/19 12:41:21;;;;;;;;;37.50;32.75;;;;;;;;4929967;28;45818;-70
2021/11/19 12:44:00;;;;;;;;;41.67;32.67;;;;;;;;4929131;28;45536;-71
2021/11/19 12:46:34;;;;;;;;;37.25;33.00;;;;;;;;4932073;28;45597;-70
2021/11/19 12:49:11;;;;;;;;;38.25;34.50;;;;;;;;4929470;28;45570;-71
2021/11/19 12:51:40;;;;;;;;;40.75;32.25;;;;;;;;4931051;28;45562;-71
2021/11/19 12:54:23;;;;;;;;;41.50;30.00;;;;;;;;4929608;28;45554;-71
2021/11/19 12:57:07;;;;;;;;;37.00;30.50;;;;;;;;4945991;28;46408;-71
2021/11/19 12:59:42;;;;;;;;;38.00;31.00;;;;;;;;4997977;28;45387;-71
2021/11/19 13:02:10;;;;;;;;;39.00;34.00;;;;;;;;4998243;28;45409;-71
2021/11/19 13:04:51;;;;;;;;;35.75;28.75;;;;;;;;5004608;28;45493;-70
2021/11/19 13:07:35;;;;;;;;;39.00;30.00;;;;;;;;5007927;28;45772;-70
2021/11/19 13:10:21;;;;;;;;;36.00;33.25;;;;;;;;4997754;28;45927;-71
2021/11/19 13:13:06;;;;;;;;;40.00;33.00;;;;;;;;5001914;28;45509;-70
2021/11/19 13:15:37;;;;;;;;;43.00;36.25;;;;;;;;4991641;28;46320;-71
2021/11/19 13:18:08;;;;;;;;;36.75;31.25;;;;;;;;5008272;28;46528;-70
2021/11/19 13:20:49;;;;;;;;;37.50;32.25;;;;;;;;5000928;28;45969;-70
2021/11/19 13:23:26;;;;;;;;;40.75;32.50;;;;;;;;5002334;28;45519;-71
2021/11/19 13:25:51;;;;;;;;;53.75;40.50;;;;;;;;5004277;28;45394;-71
2021/11/19 13:28:36;;;;;;;;;52.67;40.00;;;;;;;;5008282;28;47174;-71
2021/11/19 13:31:23;;;;;;;;;44.00;33.50;;;;;;;;5008918;28;45926;-70
2021/11/19 13:34:00;;;;;;;;;35.50;30.25;;;;;;;;5002818;28;46307;-71
2021/11/19 13:36:46;;;;;;;;;37.75;31.00;;;;;;;;5005440;28;45466;-70
2021/11/19 13:39:23;;;;;;;;;30.50;25.75;;;;;;;;5006100;28;45651;-70
2021/11/19 13:42:04;;;;;;;;;31.50;27.25;;;;;;;;4999135;28;45403;-70
2021/11/19 13:44:47;;;;;;;;;28.75;26.75;;;;;;;;5001086;28;45308;-71
2021/11/19 13:47:32;;;;;;;;;33.25;28.25;;;;;;;;4999815;28;45522;-71
2021/11/19 13:50:17;;;;;;;;;39.00;32.00;;;;;;;;4996675;28;47082;-71
2021/11/19 13:52:52;;;;;;;;;38.00;32.50;;;;;;;;5003876;28;45838;-70
2021/11/19 13:55:31;;;;;;;;;28.00;25.00;;;;;;;;5003749;28;45394;-71
2021/11/19 13:58:03;;;;;;;;;35.75;29.50;;;;;;;;5001694;28;45762;-71
2021/11/19 14:00:28;;;;;;;;;38.00;31.25;;;;;;;;5009388;28;46051;-71
2021/11/19 14:02:55;;;;;;;;;22.67;18.33;;;;;;;;5010991;28;45525;-70
2021/11/19 14:05:35;;;;;;;;;12.00;10.50;;;;;;;;4998752;28;45501;-70
2021/11/19 14:08:14;;;;;;;;;9.75;7.75;;;;;;;;5007660;28;45677;-70
2021/11/19 14:10:42;;;;;;;;;10.50;7.00;;;;;;;;5011447;28;46438;-70
2021/11/19 14:13:23;;;;;;;;;12.00;7.00;;;;;;;;5004325;28;45527;-70
2021/11/19 14:16:00;;;;;;;;;9.50;7.00;;;;;;;;4998194;28;45584;-70
2021/11/19 14:18:31;;;;;;;;;86.25;69.50;;;;;;;;5002881;28;45569;-71
2021/11/19 14:23:41;;;;;;;;;15.50;11.00;;;;;;;;5005086;28;45510;-72
2021/11/19 14:26:13;;;;;;;;;13.50;12.75;;;;;;;;5008391;28;45482;-71
2021/11/19 14:28:41;;;;;;;;;18.25;16.50;;;;;;;;5010317;28;45264;-72
2021/11/19 14:31:09;;;;;;;;;15.25;12.00;;;;;;;;5008045;28;46538;-72